Terminal Aerodrome Forecast
Issued by NWS

Home | Current Version | Previous Version | Graphics & Text | Print | Product List | Glossary Off
Versions: 1 2 3 4 5 6 7 8 9 10 11 12 13 14 15 16 17 18 19 20 21 22 23 24 25 26 27 28 29 30 31 32

300
FTUS43 KDDC 281136
TAFGCK
TAF
KGCK 281136Z 2812/0112 27009KT P6SM BKN250
     FM281500 36007KT P6SM BKN200
     FM282000 34012G18KT P6SM BKN200
     FM010000 36022G32KT P6SM VCSH BKN090
     FM010500 33015G22KT P6SM BKN200
     FM010900 29008KT P6SM VCSH BKN100=

USA.gov is the U.S. government's official web portal to all federal, state and local government web resources and services.